Time;durP1;ratioP1;P1;durP2;ratioP2;P2;SDS_P1;SDS_P2;PMS_P1;PMS_P2;Temp;Humidity;BMP_temperature;BMP_pressure;BME280_temperature;BME280_humidity;BME280_pressure;Samples;Min_cycle;Max_cycle;Signal;HPM_P1;HPM_P2
2021/08/16 00:01:33;;;;;;;7.38;4.50;;;;;;;23.28;61.40;99490.75;10386372;28;20119;-62
2021/08/16 00:06:35;;;;;;;6.25;5.05;;;;;;;23.14;62.31;99475.66;10383589;28;20248;-64
2021/08/16 00:11:39;;;;;;;7.82;4.40;;;;;;;23.33;62.07;99491.94;10385180;28;20095;-62
2021/08/16 00:16:40;;;;;;;5.15;4.43;;;;;;;23.44;62.18;99496.63;10385628;28;20069;-67
2021/08/16 00:21:42;;;;;;;8.02;5.32;;;;;;;23.32;63.00;99491.13;10383198;28;20087;-63
2021/08/16 00:26:43;;;;;;;7.80;4.82;;;;;;;23.17;63.56;99491.47;10384790;28;20053;-63
2021/08/16 00:31:45;;;;;;;5.00;4.15;;;;;;;22.98;64.79;99485.16;10383881;28;20131;-62
2021/08/16 00:36:47;;;;;;;7.00;4.55;;;;;;;22.90;65.31;99497.13;10383416;28;20053;-62
2021/08/16 00:41:48;;;;;;;8.82;5.50;;;;;;;22.90;65.07;99480.84;10383743;28;20147;-62
2021/08/16 00:46:51;;;;;;;7.28;5.28;;;;;;;22.86;65.88;99473.38;10380605;28;20643;-61
2021/08/16 00:51:53;;;;;;;6.13;4.93;;;;;;;22.88;65.87;99469.41;10383377;28;20037;-62
2021/08/16 00:56:55;;;;;;;5.20;4.40;;;;;;;22.79;66.63;99476.19;10381369;28;20056;-62
2021/08/16 01:01:56;;;;;;;6.22;4.55;;;;;;;22.74;66.59;99484.13;10381470;28;20081;-61
2021/08/16 01:06:58;;;;;;;7.80;5.22;;;;;;;22.66;65.91;99481.72;10382429;28;20096;-62
2021/08/16 01:11:59;;;;;;;5.70;4.85;;;;;;;22.53;67.89;99486.19;10382878;28;20073;-62
2021/08/16 01:17:01;;;;;;;6.38;5.45;;;;;;;22.44;68.02;99484.78;10375286;28;20507;-62
2021/08/16 01:22:02;;;;;;;6.60;5.03;;;;;;;22.50;67.62;99500.16;10377123;28;20138;-62
2021/08/16 01:27:08;;;;;;;6.15;4.82;;;;;;;22.55;66.61;99507.66;10380958;28;20502;-62
2021/08/16 01:32:10;;;;;;;6.65;4.28;;;;;;;22.55;65.58;99508.50;10380825;28;20196;-62
2021/08/16 01:37:11;;;;;;;4.63;4.07;;;;;;;22.56;65.16;99499.31;10381729;28;20084;-62
2021/08/16 01:42:13;;;;;;;4.95;3.17;;;;;;;22.59;64.68;99493.44;10382406;28;20137;-62
2021/08/16 01:47:14;;;;;;;5.35;4.30;;;;;;;22.63;64.33;99515.53;10381985;28;20126;-62
2021/08/16 01:52:15;;;;;;;6.20;4.57;;;;;;;22.65;64.83;99534.28;10379156;28;20103;-62
2021/08/16 01:57:17;;;;;;;5.30;3.97;;;;;;;22.65;64.47;99534.28;10380129;28;20084;-62
2021/08/16 02:02:18;;;;;;;6.82;3.83;;;;;;;22.64;64.77;99532.63;10396473;28;20073;-62
2021/08/16 02:07:20;;;;;;;7.80;3.80;;;;;;;22.62;64.90;99537.44;10380035;28;20072;-62
2021/08/16 02:12:21;;;;;;;7.25;3.88;;;;;;;22.62;64.43;99534.72;10381233;28;20503;-62
2021/08/16 02:17:23;;;;;;;5.25;3.85;;;;;;;22.60;63.94;99527.63;10381141;28;20053;-61
2021/08/16 02:22:24;;;;;;;4.63;3.85;;;;;;;22.60;64.15;99532.25;10380672;28;20517;-62
2021/08/16 02:27:26;;;;;;;4.63;4.13;;;;;;;22.57;64.18;99528.06;10371190;28;20115;-62
2021/08/16 02:32:27;;;;;;;3.80;3.33;;;;;;;22.56;63.37;99528.28;10377758;28;20066;-62
2021/08/16 02:37:29;;;;;;;6.65;4.35;;;;;;;22.53;63.57;99542.28;10379567;28;20073;-62
2021/08/16 02:42:30;;;;;;;4.63;4.15;;;;;;;22.51;63.55;99534.38;10380514;28;20061;-64
2021/08/16 02:47:32;;;;;;;6.03;4.28;;;;;;;22.48;63.44;99548.38;10370753;28;20045;-62
2021/08/16 02:52:33;;;;;;;5.35;4.03;;;;;;;22.43;63.83;99545.50;10378553;28;20131;-62
2021/08/16 02:57:35;;;;;;;5.05;4.20;;;;;;;22.44;63.96;99547.16;10378815;28;24170;-62
2021/08/16 03:02:36;;;;;;;5.75;4.35;;;;;;;22.31;65.20;99533.63;10379073;28;20045;-62
2021/08/16 03:07:38;;;;;;;5.07;3.85;;;;;;;22.24;64.91;99548.06;10379280;28;20056;-62
2021/08/16 03:12:39;;;;;;;8.13;3.83;;;;;;;22.22;63.75;99552.06;10379713;28;20049;-62
2021/08/16 03:17:41;;;;;;;6.90;4.57;;;;;;;22.17;62.43;99549.16;10378809;28;20152;-64
2021/08/16 03:22:43;;;;;;;8.18;4.22;;;;;;;22.13;62.23;99561.47;10380355;28;20092;-62
2021/08/16 03:27:45;;;;;;;8.27;4.22;;;;;;;21.96;62.20;99574.69;10381474;28;20045;-62
2021/08/16 03:32:48;;;;;;;8.95;4.80;;;;;;;21.92;61.86;99578.88;10383608;28;20069;-62
2021/08/16 03:37:49;;;;;;;7.63;4.33;;;;;;;21.75;62.52;99583.94;10385211;28;20140;-62
2021/08/16 03:42:51;;;;;;;6.50;3.90;;;;;;;21.80;62.35;99587.66;10391954;28;20772;-62
2021/08/16 03:47:53;;;;;;;10.45;5.90;;;;;;;21.80;62.12;99587.66;10382680;28;20077;-63
2021/08/16 03:52:55;;;;;;;7.60;3.85;;;;;;;21.77;62.71;99593.50;10386382;28;20049;-62
2021/08/16 03:57:56;;;;;;;8.55;5.00;;;;;;;21.83;61.97;99598.06;10386084;28;20123;-62
2021/08/16 04:02:58;;;;;;;6.93;4.28;;;;;;;21.95;61.82;99608.25;10385174;28;20205;-62
2021/08/16 04:07:59;;;;;;;6.28;3.78;;;;;;;21.75;61.60;99617.25;10385881;28;20045;-61
2021/08/16 04:13:01;;;;;;;5.38;3.10;;;;;;;21.67;60.54;99614.78;10384906;28;20135;-62
2021/08/16 04:18:02;;;;;;;4.90;3.45;;;;;;;21.76;60.26;99621.63;10383527;28;20476;-61
2021/08/16 04:23:04;;;;;;;4.03;2.83;;;;;;;21.63;58.92;99629.78;10384767;28;20144;-62
2021/08/16 04:28:05;;;;;;;4.75;3.72;;;;;;;21.62;58.77;99634.38;10382199;28;20073;-62
2021/08/16 04:33:07;;;;;;;4.15;2.97;;;;;;;21.68;58.15;99646.25;10383705;28;20275;-62
2021/08/16 04:38:08;;;;;;;6.45;2.90;;;;;;;21.71;58.12;99643.13;10380585;28;20136;-62
2021/08/16 04:43:10;;;;;;;3.60;2.60;;;;;;;21.53;57.11;99641.06;10385115;28;20696;-62
2021/08/16 04:48:11;;;;;;;3.17;2.30;;;;;;;21.50;57.11;99650.44;10384147;28;20862;-62
2021/08/16 04:53:13;;;;;;;4.82;2.20;;;;;;;21.47;54.68;99658.13;10384122;28;20065;-62
2021/08/16 04:58:14;;;;;;;5.55;2.22;;;;;;;21.47;55.50;99645.41;10383188;28;20057;-62
2021/08/16 05:03:16;;;;;;;4.78;2.38;;;;;;;21.66;55.46;99656.44;10382501;28;20116;-63
2021/08/16 05:08:17;;;;;;;4.43;1.90;;;;;;;21.54;53.84;99654.41;10382729;28;20054;-62
2021/08/16 05:13:19;;;;;;;4.68;2.85;;;;;;;21.39;55.64;99642.06;10382462;28;20077;-62
2021/08/16 05:18:20;;;;;;;3.08;2.28;;;;;;;21.32;54.84;99645.63;10380404;28;20575;-62
2021/08/16 05:23:22;;;;;;;3.70;2.15;;;;;;;21.30;55.26;99652.28;10381118;28;20069;-62
2021/08/16 05:28:24;;;;;;;2.03;1.55;;;;;;;21.21;54.60;99658.94;10375813;28;20141;-61
2021/08/16 05:33:25;;;;;;;2.75;1.52;;;;;;;21.11;53.86;99660.19;10374959;28;21142;-61
2021/08/16 05:38:27;;;;;;;2.65;1.33;;;;;;;21.22;53.65;99669.56;10379498;28;20045;-60
2021/08/16 05:43:28;;;;;;;3.30;1.55;;;;;;;21.09;52.05;99672.25;10379077;28;20162;-61
2021/08/16 05:48:29;;;;;;;4.00;1.70;;;;;;;21.05;51.39;99682.66;10378259;28;20034;-61
2021/08/16 05:53:31;;;;;;;3.55;1.27;;;;;;;20.99;50.69;99694.31;10378723;28;20223;-61
2021/08/16 05:58:32;;;;;;;4.93;1.20;;;;;;;21.09;51.48;99692.06;10379412;28;20100;-61
2021/08/16 06:03:34;;;;;;;3.35;1.70;;;;;;;21.11;51.00;99692.66;10378367;28;20399;-61
2021/08/16 06:08:35;;;;;;;5.75;1.70;;;;;;;21.21;51.49;99707.66;10377463;28;20052;-61
2021/08/16 06:13:37;;;;;;;3.45;2.03;;;;;;;21.32;50.76;99728.72;10377633;28;20116;-61
2021/08/16 06:18:38;;;;;;;3.72;0.90;;;;;;;21.12;49.52;99716.00;10378268;28;20542;-61
2021/08/16 06:23:40;;;;;;;3.70;1.80;;;;;;;21.16;50.21;99728.03;10377797;28;20064;-60
2021/08/16 06:28:41;;;;;;;3.47;1.75;;;;;;;21.18;49.24;99726.00;10376532;28;20592;-60
2021/08/16 06:33:43;;;;;;;3.63;1.33;;;;;;;21.21;49.15;99726.59;10378163;28;20528;-60
2021/08/16 06:38:47;;;;;;;11.13;2.27;;;;;;;21.05;49.16;99725.09;10378380;28;20075;-63
2021/08/16 06:43:49;;;;;;;3.45;0.88;;;;;;;21.05;49.34;99742.19;10379948;28;20088;-62
2021/08/16 06:48:51;;;;;;;5.10;1.70;;;;;;;21.03;49.67;99733.44;10392774;28;20053;-62
2021/08/16 06:53:52;;;;;;;2.55;1.13;;;;;;;21.12;51.15;99737.63;10377945;28;20053;-62
2021/08/16 06:58:55;;;;;;;3.35;1.17;;;;;;;21.33;49.95;99754.72;10376848;28;20103;-61
2021/08/16 07:03:58;;;;;;;3.40;1.30;;;;;;;21.26;49.62;99772.81;10375074;28;20689;-65
2021/08/16 07:09:00;;;;;;;;;;;;;;;21.50;50.64;99777.69;10377692;28;20461;-62
2021/08/16 07:14:01;;;;;;;8.05;1.42;;;;;;;21.63;48.77;99782.28;10369529;28;19921;-60
2021/08/16 07:19:03;;;;;;;3.92;1.15;;;;;;;21.64;48.77;99783.13;10375331;28;20092;-62
2021/08/16 07:24:05;;;;;;;4.63;1.08;;;;;;;21.73;48.78;99776.44;10376936;28;20740;-62
2021/08/16 07:29:06;;;;;;;3.05;1.40;;;;;;;21.51;48.60;99778.50;10376549;28;20202;-62
2021/08/16 07:34:08;;;;;;;1.88;0.70;;;;;;;21.75;47.58;99796.03;10371223;28;20171;-62
2021/08/16 07:39:09;;;;;;;1.75;0.88;;;;;;;21.52;47.98;99791.03;10370647;28;20376;-62
2021/08/16 07:44:11;;;;;;;3.30;1.00;;;;;;;21.43;48.13;99803.06;10375600;28;20072;-61
2021/08/16 07:49:12;;;;;;;2.53;0.77;;;;;;;21.37;48.24;99791.16;10375905;28;20080;-59
2021/08/16 07:54:14;;;;;;;2.40;0.90;;;;;;;21.40;48.24;99798.06;10370964;28;20049;-61
2021/08/16 07:59:19;;;;;;;3.08;0.50;;;;;;;21.51;47.41;99795.63;10374622;28;20057;-61
2021/08/16 08:04:20;;;;;;;3.70;0.80;;;;;;;21.44;47.51;99802.84;10374315;28;20049;-61
2021/08/16 08:09:22;;;;;;;2.00;0.70;;;;;;;21.41;47.45;99800.56;10389582;28;20541;-62
2021/08/16 08:14:24;;;;;;;3.38;0.85;;;;;;;21.37;47.99;99799.28;10381633;28;20506;-61
2021/08/16 08:19:25;;;;;;;2.83;0.68;;;;;;;21.53;47.59;99798.94;10384255;28;20076;-62
2021/08/16 08:24:28;;;;;;;2.60;0.82;;;;;;;21.35;48.45;99799.50;10397516;28;20077;-61
2021/08/16 08:29:29;;;;;;;2.50;0.88;;;;;;;21.54;48.41;99811.44;10381069;28;20065;-61
2021/08/16 08:34:31;;;;;;;2.08;0.65;;;;;;;21.57;48.46;99807.47;10382945;28;20112;-61
2021/08/16 08:39:32;;;;;;;1.77;0.73;;;;;;;21.58;48.49;99811.03;10380844;28;20052;-60
2021/08/16 08:44:34;;;;;;;2.03;0.65;;;;;;;21.51;48.20;99816.41;10380993;28;20587;-60
2021/08/16 08:49:35;;;;;;;2.30;0.73;;;;;;;21.59;48.35;99810.81;10376294;28;21012;-59
2021/08/16 08:54:37;;;;;;;3.40;0.68;;;;;;;21.62;47.89;99814.97;10379929;28;20049;-59
2021/08/16 08:59:58;;;;;;;2.15;0.70;;;;;;;21.26;49.01;99808.84;10375376;28;20059;-59
2021/08/16 09:05:02;;;;;;;2.67;0.70;;;;;;;21.32;49.07;99812.63;10378052;28;20115;-59
2021/08/16 09:10:09;;;;;;;2.90;0.45;;;;;;;21.20;49.45;99806.97;10382445;28;20647;-60
2021/08/16 09:15:16;;;;;;;2.20;0.50;;;;;;;21.36;49.51;99813.84;10381444;28;20421;-60
2021/08/16 09:20:27;;;;;;;4.22;0.73;;;;;;;21.18;49.07;99820.69;10378349;28;20061;-59
2021/08/16 09:25:32;;;;;;;2.42;0.68;;;;;;;21.24;49.58;99821.72;10380114;28;20103;-59
2021/08/16 09:30:39;;;;;;;3.13;0.60;;;;;;;21.30;49.39;99822.81;10391454;28;20112;-60
2021/08/16 09:35:58;;;;;;;3.85;0.73;;;;;;;21.34;49.25;99810.53;10376889;28;20085;-60
2021/08/16 09:41:00;;;;;;;2.45;0.65;;;;;;;21.50;49.24;99807.47;10374903;28;20130;-60
2021/08/16 09:46:12;;;;;;;1.60;0.80;;;;;;;21.60;48.89;99804.34;10380029;28;20537;-60
2021/08/16 09:51:22;;;;;;;2.83;0.60;;;;;;;21.70;48.77;99804.78;10372879;28;20143;-60
2021/08/16 09:56:24;;;;;;;1.50;0.90;;;;;;;21.63;48.79;99801.25;10377864;28;20119;-60
2021/08/16 10:01:27;;;;;;;2.63;0.90;;;;;;;21.65;49.27;99801.88;10376079;22;20057;-53
2021/08/16 10:06:30;;;;;;;5.18;1.50;;;;;;;21.64;48.85;99788.53;10345733;28;20124;-54
2021/08/16 10:11:31;;;;;;;4.93;0.85;;;;;;;21.80;48.75;99790.84;10334667;28;20136;-57
2021/08/16 10:16:38;;;;;;;4.07;0.85;;;;;;;22.25;47.98;99801.00;10337815;28;20054;-53
2021/08/16 10:21:42;;;;;;;2.65;0.60;;;;;;;22.13;48.02;99802.69;10337760;28;20046;-51
2021/08/16 10:27:01;;;;;;;2.67;0.93;;;;;;;21.79;49.38;99810.81;10331008;28;20042;-52
2021/08/16 10:32:07;;;;;;;3.17;1.23;;;;;;;21.67;49.76;99796.25;10334120;28;20069;-53
2021/08/16 10:37:11;;;;;;;2.92;0.95;;;;;;;21.98;48.86;99792.91;10318997;28;20455;-50
2021/08/16 10:42:16;;;;;;;4.55;2.40;;;;;;;22.40;47.41;99798.09;10330737;28;20049;-52
2021/08/16 10:47:32;;;;;;;2.97;0.90;;;;;;;22.38;47.54;99789.31;10332093;28;20108;-58
2021/08/16 10:52:38;;;;;;;2.50;1.20;;;;;;;21.95;48.21;99779.78;10334556;28;20061;-54
2021/08/16 10:57:41;;;;;;;4.25;1.20;;;;;;;21.69;49.07;99775.19;10339124;28;20116;-53
2021/08/16 11:02:43;;;;;;;3.05;1.30;;;;;;;21.56;49.92;99772.47;10333826;28;20140;-52
2021/08/16 11:07:45;;;;;;;2.30;0.90;;;;;;;21.66;49.92;99779.16;10336576;28;20088;-53
2021/08/16 11:12:46;;;;;;;3.03;0.98;;;;;;;21.66;49.47;99775.59;10333967;28;20060;-53
2021/08/16 11:17:49;;;;;;;2.17;1.17;;;;;;;21.93;48.65;99770.19;10322199;28;20503;-54
2021/08/16 11:22:54;;;;;;;3.90;1.42;;;;;;;21.88;48.72;99768.13;10323939;28;20050;-54
2021/08/16 11:28:03;;;;;;;2.33;0.88;;;;;;;21.82;49.24;99777.91;10324238;28;20046;-58
2021/08/16 11:33:05;;;;;;;2.85;1.20;;;;;;;21.64;49.70;99756.03;10323799;28;20108;-53
2021/08/16 11:38:13;;;;;;;4.60;1.63;;;;;;;21.69;50.04;99748.09;10312539;28;20134;-55
2021/08/16 11:43:25;;;;;;;3.30;1.48;;;;;;;23.44;46.67;99732.91;10296829;28;20053;-54
2021/08/16 11:48:26;;;;;;;4.75;1.95;;;;;;;24.14;43.64;99732.69;10304632;28;21002;-55
2021/08/16 11:53:41;;;;;;;3.55;1.50;;;;;;;24.09;43.74;99751.56;10308095;28;20065;-54
2021/08/16 11:58:44;;;;;;;1.92;1.30;;;;;;;24.89;42.32;99736.22;10315576;28;20547;-57
2021/08/16 12:03:46;;;;;;;2.95;1.33;;;;;;;25.75;41.23;99742.25;10317353;28;20116;-56
2021/08/16 12:08:48;;;;;;;5.55;1.45;;;;;;;24.47;42.41;99746.97;10314503;28;20054;-55
2021/08/16 12:13:56;;;;;;;4.20;2.08;;;;;;;23.61;44.18;99733.16;10333975;28;20077;-57
2021/08/16 12:18:59;;;;;;;2.05;1.20;;;;;;;23.14;45.45;99728.09;10317543;28;20133;-57
2021/08/16 12:24:04;;;;;;;2.88;1.48;;;;;;;22.97;45.81;99727.75;10314678;28;20129;-52
2021/08/16 12:29:20;;;;;;;3.15;1.35;;;;;;;23.48;44.75;99713.22;10313584;28;20172;-50
2021/08/16 12:34:32;;;;;;;5.20;1.52;;;;;;;23.16;45.52;99709.69;10314482;28;20046;-57
2021/08/16 12:39:34;;;;;;;4.00;1.73;;;;;;;22.98;45.88;99691.41;10317838;28;20062;-56
2021/08/16 12:44:38;;;;;;;3.40;1.30;;;;;;;23.05;45.67;99691.38;10315441;28;20070;-56
2021/08/16 12:49:41;;;;;;;4.25;1.23;;;;;;;22.80;46.15;99678.56;10336117;28;20055;-53
2021/08/16 12:54:42;;;;;;;3.42;1.10;;;;;;;22.81;46.50;99696.53;10317192;28;20066;-50
2021/08/16 12:59:46;;;;;;;1.98;0.85;;;;;;;22.92;45.58;99676.84;10336715;28;20132;-56
2021/08/16 13:04:48;;;;;;;2.63;1.00;;;;;;;23.17;44.63;99680.69;10318410;28;20117;-58
2021/08/16 13:09:49;;;;;;;2.05;1.00;;;;;;;23.89;43.25;99683.00;10328388;28;20077;-52
2021/08/16 13:14:58;;;;;;;4.80;1.48;;;;;;;24.05;42.74;99667.97;10317452;28;20062;-54
2021/08/16 13:20:01;;;;;;;2.72;0.80;;;;;;;24.58;41.81;99667.34;10312447;28;20515;-53
2021/08/16 13:25:04;;;;;;;1.25;0.70;;;;;;;24.97;41.49;99664.31;10316988;28;20144;-51
2021/08/16 13:30:09;;;;;;;1.58;0.50;;;;;;;25.62;40.26;99659.91;10308035;28;20113;-53
2021/08/16 13:35:10;;;;;;;2.45;0.55;;;;;;;25.79;39.46;99670.91;10318156;28;20103;-52
2021/08/16 13:40:12;;;;;;;2.50;0.60;;;;;;;25.39;40.02;99654.22;10328572;28;20132;-57
2021/08/16 13:45:14;;;;;;;5.32;0.70;;;;;;;25.05;41.16;99655.78;10311830;28;20156;-53
2021/08/16 13:50:16;;;;;;;3.50;1.42;;;;;;;25.03;41.41;99645.13;10312509;28;20077;-58
2021/08/16 13:55:18;;;;;;;3.03;1.00;;;;;;;24.73;41.57;99647.06;10311147;28;20144;-53
2021/08/16 14:00:19;;;;;;;4.32;1.02;;;;;;;24.17;43.24;99664.28;10313512;28;20490;-56
2021/08/16 14:05:21;;;;;;;1.20;0.60;;;;;;;23.79;44.38;99669.88;10310154;28;20108;-52
2021/08/16 14:10:22;;;;;;;0.80;0.43;;;;;;;23.39;45.78;99672.97;10311928;28;20061;-59
2021/08/16 14:15:24;;;;;;;2.58;0.52;;;;;;;23.17;46.01;99659.78;10313539;28;20053;-52
2021/08/16 14:20:25;;;;;;;1.70;0.20;;;;;;;23.80;44.69;99666.94;10309890;28;20073;-53
2021/08/16 14:25:27;;;;;;;1.25;0.40;;;;;;;24.24;43.89;99663.38;10310978;28;20077;-59
2021/08/16 14:30:28;;;;;;;1.80;0.50;;;;;;;23.99;44.37;99658.84;10310653;28;20161;-53
2021/08/16 14:35:30;;;;;;;2.30;0.40;;;;;;;23.63;45.50;99655.84;10304853;28;20060;-54
2021/08/16 14:40:32;;;;;;;1.77;0.60;;;;;;;23.65;45.81;99667.31;10305957;28;20063;-51
2021/08/16 14:45:38;;;;;;;5.05;0.70;;;;;;;23.48;46.04;99685.25;10309796;28;20059;-53
2021/08/16 14:50:39;;;;;;;0.95;0.60;;;;;;;23.00;47.25;99688.47;10309492;28;20057;-58
2021/08/16 14:55:41;;;;;;;2.10;0.28;;;;;;;22.98;47.15;99685.16;10309155;28;20199;-57
2021/08/16 15:00:43;;;;;;;1.42;0.32;;;;;;;22.92;47.61;99676.00;10310038;28;20061;-53
2021/08/16 15:05:45;;;;;;;2.15;0.40;;;;;;;22.82;48.28;99692.78;10305306;28;20414;-54
2021/08/16 15:10:46;;;;;;;3.40;0.63;;;;;;;22.63;48.56;99691.00;10328530;28;20097;-58
2021/08/16 15:15:47;;;;;;;2.00;0.40;;;;;;;22.47;49.03;99698.56;10310930;28;20496;-50
2021/08/16 15:20:49;;;;;;;2.03;0.40;;;;;;;22.35;49.55;99720.13;10313098;28;20439;-54
2021/08/16 15:25:51;;;;;;;1.02;0.40;;;;;;;21.57;56.31;99782.28;10319740;28;20724;-50
2021/08/16 15:30:53;;;;;;;0.73;0.17;;;;;;;20.53;61.53;99800.41;10319795;28;20458;-55
2021/08/16 15:35:56;;;;;;;2.08;0.82;;;;;;;20.26;63.14;99811.06;10316992;28;20107;-53
2021/08/16 15:40:58;;;;;;;2.92;2.40;;;;;;;19.78;60.17;99827.94;10318906;28;20227;-58
2021/08/16 15:45:59;;;;;;;6.57;5.07;;;;;;;19.35;59.24;99847.63;10303648;28;20239;-53
2021/08/16 15:51:01;;;;;;;5.97;5.28;;;;;;;18.79;59.30;99836.53;10302849;28;20049;-55
2021/08/16 15:56:02;;;;;;;9.38;6.13;;;;;;;18.68;59.88;99844.06;10314453;28;20133;-50
2021/08/16 16:01:04;;;;;;;9.07;6.50;;;;;;;18.70;58.49;99857.38;10314819;28;20588;-54
2021/08/16 16:06:06;;;;;;;7.85;5.75;;;;;;;18.66;58.18;99856.91;10315453;28;20057;-56
2021/08/16 16:11:07;;;;;;;9.40;7.18;;;;;;;18.71;57.39;99869.84;10320234;28;20136;-51
2021/08/16 16:16:09;;;;;;;8.32;6.72;;;;;;;19.00;56.41;99885.19;10320735;28;20057;-54
2021/08/16 16:21:13;;;;;;;8.13;6.55;;;;;;;18.79;57.09;99879.69;10318661;28;20054;-50
2021/08/16 16:26:18;;;;;;;10.27;7.38;;;;;;;19.18;56.36;99883.97;10317947;28;20081;-52
2021/08/16 16:31:20;;;;;;;8.63;6.47;;;;;;;19.41;55.68;99871.16;10318989;28;20169;-58
2021/08/16 16:36:21;;;;;;;7.97;6.65;;;;;;;19.66;54.68;99878.88;10317703;28;20573;-54
2021/08/16 16:41:23;;;;;;;9.15;7.63;;;;;;;19.73;54.46;99885.19;10319301;28;20153;-54
2021/08/16 16:46:24;;;;;;;8.85;7.95;;;;;;;19.82;53.91;99914.81;10319462;28;20116;-51
2021/08/16 16:51:27;;;;;;;10.50;8.90;;;;;;;19.71;52.73;99919.66;10313679;28;20090;-55
2021/08/16 16:56:30;;;;;;;12.30;9.90;;;;;;;19.05;54.12;99936.72;10312853;28;20050;-60
2021/08/16 17:01:31;;;;;;;12.55;9.88;;;;;;;19.25;53.27;99941.53;10314574;28;20144;-52
2021/08/16 17:06:33;;;;;;;10.70;8.95;;;;;;;19.21;52.74;99961.81;10315756;28;20161;-53
2021/08/16 17:11:34;;;;;;;11.07;9.27;;;;;;;19.02;53.60;99963.19;10329542;22;20045;-60
2021/08/16 17:16:36;;;;;;;12.18;10.13;;;;;;;19.18;54.34;99963.03;10321016;28;20073;-59
2021/08/16 17:21:37;;;;;;;18.70;14.98;;;;;;;19.29;54.24;99960.88;10311272;28;20049;-62
2021/08/16 17:26:39;;;;;;;11.00;9.80;;;;;;;19.02;54.74;99947.88;10313302;28;20185;-61
2021/08/16 17:31:40;;;;;;;12.52;10.23;;;;;;;19.13;54.56;99956.53;10317910;28;20147;-60
2021/08/16 17:36:42;;;;;;;12.50;10.13;;;;;;;19.13;54.52;99953.84;10309575;28;20148;-60
2021/08/16 17:41:43;;;;;;;12.27;9.27;;;;;;;19.26;54.90;99967.50;10313397;28;20553;-61
2021/08/16 17:46:45;;;;;;;11.95;9.35;;;;;;;19.34;54.45;99964.69;10313791;28;20124;-59
2021/08/16 17:51:47;;;;;;;11.70;9.80;;;;;;;18.98;55.38;99968.16;10327503;28;20077;-57
2021/08/16 17:56:49;;;;;;;10.98;9.30;;;;;;;19.14;55.66;99977.06;10327931;28;20049;-58
2021/08/16 18:01:51;;;;;;;11.25;9.98;;;;;;;18.58;56.40;99982.84;10314113;28;20062;-60
2021/08/16 18:06:52;;;;;;;9.40;8.00;;;;;;;18.40;57.11;100002.03;10314216;28;20495;-59
2021/08/16 18:11:55;;;;;;;6.57;5.57;;;;;;;18.01;57.54;100018.13;10327877;28;20176;-61
2021/08/16 18:16:57;;;;;;;6.95;5.32;;;;;;;17.85;58.06;100026.28;10313173;28;20136;-60
2021/08/16 18:21:58;;;;;;;8.13;6.47;;;;;;;18.06;58.06;100039.16;10309262;28;20124;-60
2021/08/16 18:27:01;;;;;;;4.47;3.22;;;;;;;18.14;56.24;100049.03;10312422;28;20115;-60
2021/08/16 18:32:03;;;;;;;2.27;1.67;;;;;;;17.69;56.36;100047.88;10315480;28;20136;-59
2021/08/16 18:37:10;;;;;;;4.10;1.73;;;;;;;17.93;56.77;100080.09;10311163;28;20124;-58
2021/08/16 18:42:17;;;;;;;2.20;1.48;;;;;;;17.92;57.33;100096.44;10313843;28;20042;-61
2021/08/16 18:47:19;;;;;;;4.82;1.77;;;;;;;17.34;60.53;100114.56;10307040;28;20193;-61
2021/08/16 18:52:20;;;;;;;8.13;4.38;;;;;;;16.99;62.05;100124.69;10330754;28;20152;-61
2021/08/16 18:57:22;;;;;;;3.78;2.78;;;;;;;17.63;62.67;100124.78;10313980;28;20132;-60
2021/08/16 19:02:23;;;;;;;3.50;1.88;;;;;;;17.44;63.00;100136.75;10304617;28;20124;-62
2021/08/16 19:07:25;;;;;;;4.22;1.98;;;;;;;17.59;63.10;100151.19;10319219;28;20042;-59
2021/08/16 19:12:26;;;;;;;2.28;1.40;;;;;;;17.54;60.38;100169.69;10304344;28;20078;-59
2021/08/16 19:17:28;;;;;;;3.63;1.85;;;;;;;17.11;63.08;100188.75;10306013;28;20077;-60
2021/08/16 19:22:31;;;;;;;3.50;2.45;;;;;;;17.33;62.73;100196.31;10311187;28;20125;-61
2021/08/16 19:27:33;;;;;;;7.05;3.53;;;;;;;17.45;63.14;100203.03;10310641;28;20200;-60
2021/08/16 19:32:34;;;;;;;2.50;1.50;;;;;;;17.36;63.11;100201.34;10309192;28;20127;-60
2021/08/16 19:37:37;;;;;;;2.88;1.58;;;;;;;17.38;64.55;100212.78;10307405;28;20235;-58
2021/08/16 19:42:39;;;;;;;3.20;1.77;;;;;;;17.55;63.29;100208.22;10299648;28;20769;-60
2021/08/16 19:47:40;;;;;;;4.30;2.17;;;;;;;17.46;66.12;100220.84;10302389;28;20062;-62
2021/08/16 19:52:41;;;;;;;1.98;1.58;;;;;;;17.39;65.06;100209.09;10306515;28;20050;-61
2021/08/16 19:57:43;;;;;;;4.03;2.40;;;;;;;17.31;66.27;100202.69;10304364;28;20077;-62
2021/08/16 20:02:44;;;;;;;4.30;2.50;;;;;;;17.21;64.63;100211.94;10301141;28;20168;-58
2021/08/16 20:07:46;;;;;;;3.47;1.92;;;;;;;17.17;65.55;100224.88;10310958;28;20667;-58
2021/08/16 20:12:48;;;;;;;3.58;1.88;;;;;;;17.25;66.34;100230.28;10315397;28;20069;-60
2021/08/16 20:17:49;;;;;;;3.05;1.70;;;;;;;17.34;66.08;100235.63;10306267;28;20069;-60
2021/08/16 20:22:51;;;;;;;3.10;2.10;;;;;;;17.48;64.74;100240.34;10318240;28;20050;-61
2021/08/16 20:27:53;;;;;;;4.13;2.33;;;;;;;17.36;65.78;100245.22;10328496;28;20176;-62
2021/08/16 20:32:55;;;;;;;1.88;1.65;;;;;;;17.38;64.40;100256.66;10314400;28;20050;-59
2021/08/16 20:37:56;;;;;;;6.80;3.15;;;;;;;17.31;65.48;100269.94;10312660;28;20176;-62
2021/08/16 20:43:00;;;;;;;4.13;2.22;;;;;;;17.29;65.95;100263.91;10317290;28;20819;-57
2021/08/16 20:48:01;;;;;;;5.15;2.72;;;;;;;17.38;65.64;100277.34;10314663;28;20066;-59
2021/08/16 20:53:02;;;;;;;2.83;2.17;;;;;;;17.23;65.26;100280.69;10318139;28;20811;-58
2021/08/16 20:58:06;;;;;;;2.90;2.20;;;;;;;17.01;66.67;100275.94;10316963;28;20053;-60
2021/08/16 21:03:08;;;;;;;4.20;2.53;;;;;;;16.69;66.81;100272.13;10310438;28;20049;-61
2021/08/16 21:08:30;;;;;;;5.15;2.97;;;;;;;16.90;66.45;100269.91;10308282;28;20061;-58
2021/08/16 21:13:33;;;;;;;2.97;2.08;;;;;;;16.99;65.21;100269.91;10331053;28;20121;-58
2021/08/16 21:18:35;;;;;;;4.38;3.28;;;;;;;16.85;66.19;100277.56;10332125;28;20046;-61
2021/08/16 21:23:36;;;;;;;3.78;2.28;;;;;;;16.77;65.51;100285.63;10330052;28;20158;-60
2021/08/16 21:28:38;;;;;;;4.03;2.17;;;;;;;16.80;66.18;100290.66;10331070;28;20146;-58
2021/08/16 21:33:39;;;;;;;7.07;2.78;;;;;;;16.68;65.97;100291.94;10333575;28;20065;-59
2021/08/16 21:38:41;;;;;;;5.18;2.90;;;;;;;16.69;65.79;100290.94;10343842;28;20050;-58
2021/08/16 21:43:42;;;;;;;4.65;2.22;;;;;;;16.51;64.63;100283.81;10341584;28;20042;-58
2021/08/16 21:48:44;;;;;;;4.30;2.08;;;;;;;16.28;64.43;100294.28;10337158;28;23712;-59
2021/08/16 21:53:46;;;;;;;4.80;2.30;;;;;;;15.94;67.09;100287.03;10335950;28;20042;-60
2021/08/16 21:58:47;;;;;;;5.28;2.83;;;;;;;16.18;66.59;100299.78;10333274;28;20104;-60
2021/08/16 22:03:55;;;;;;;5.65;2.90;;;;;;;16.05;64.37;100299.38;10332339;28;20204;-59
2021/08/16 22:08:57;;;;;;;4.00;2.60;;;;;;;15.99;64.97;100295.47;10335396;28;20127;-58
2021/08/16 22:33:21;;;;;;;6.35;3.00;;;;;;;15.78;66.10;100322.66;10325200;28;20473;-61
2021/08/16 22:38:22;;;;;;;5.72;3.15;;;;;;;15.80;65.33;100320.66;10346047;28;20089;-58
2021/08/16 22:43:23;;;;;;;4.63;3.25;;;;;;;15.65;65.01;100322.19;10323238;28;20082;-57
2021/08/16 22:48:25;;;;;;;5.55;2.70;;;;;;;15.55;65.54;100328.50;10326749;28;20073;-58
2021/08/16 22:53:26;;;;;;;8.98;3.08;;;;;;;15.52;65.78;100334.16;10333919;28;20072;-61
2021/08/16 22:58:27;;;;;;;5.97;2.38;;;;;;;15.60;65.29;100345.94;10325662;28;20127;-61
2021/08/16 23:03:29;;;;;;;5.68;2.58;;;;;;;15.51;65.53;100337.84;10326931;28;20053;-58
2021/08/16 23:08:34;;;;;;;4.15;3.10;;;;;;;15.41;65.58;100344.28;10335689;28;20054;-59
2021/08/16 23:13:36;;;;;;;6.63;3.00;;;;;;;15.41;65.76;100347.78;10323890;28;20119;-58
2021/08/16 23:18:37;;;;;;;5.70;3.03;;;;;;;15.56;65.61;100346.25;10334558;28;20069;-59
2021/08/16 23:23:40;;;;;;;7.75;2.90;;;;;;;15.68;64.55;100360.28;10331997;28;20065;-57
2021/08/16 23:28:41;;;;;;;6.35;2.97;;;;;;;15.61;64.71;100347.63;10331779;28;20061;-58
2021/08/16 23:33:42;;;;;;;4.05;2.53;;;;;;;15.60;63.58;100337.88;10332160;28;20123;-59
2021/08/16 23:38:44;;;;;;;5.10;3.00;;;;;;;15.40;64.04;100356.81;10331227;28;20121;-58